Time;durP1;ratioP1;P1;durP2;ratioP2;P2;SDS_P1;SDS_P2;PMS_P1;PMS_P2;Temp;Humidity;BMP_temperature;BMP_pressure;BME280_temperature;BME280_humidity;BME280_pressure;Samples;Min_cycle;Max_cycle;Signal;HPM_P1;HPM_P2
2024/03/27 00:00:59;;;;;;;;;5.83;4.33;;;;;10.01;65.63;98620.72;2043139;28;2744114;-72
2024/03/27 00:02:13;;;;;;;;;4.00;4.00;;;;;10.00;65.69;98623.47;2020385;28;2739941;-72
2024/03/27 00:03:26;;;;;;;;;3.50;3.50;;;;;9.97;66.14;98611.38;2020451;28;2746134;-72
2024/03/27 00:04:39;;;;;;;;;3.67;3.67;;;;;9.97;66.24;98611.38;2021069;28;2750257;-72
2024/03/27 00:05:53;;;;;;;;;5.33;5.33;;;;;9.98;66.00;98613.06;2019802;28;2748190;-72
2024/03/27 00:07:06;;;;;;;;;4.50;4.50;;;;;9.97;66.26;98605.28;2021384;28;2750272;-72
2024/03/27 00:08:20;;;;;;;;;6.83;3.50;;;;;9.97;65.95;98605.28;2044263;28;2741922;-72
2024/03/27 00:09:31;;;;;;;;;4.33;3.67;;;;;9.93;65.67;98595.91;1994673;28;2750285;-72
2024/03/27 00:10:45;;;;;;;;;7.17;5.00;;;;;9.92;65.91;98596.88;2044368;28;2747195;-72
2024/03/27 00:11:58;;;;;;;;;3.00;3.00;;;;;9.94;65.97;98600.22;2011344;28;2749226;-72
2024/03/27 00:13:11;;;;;;;;;3.67;3.67;;;;;9.90;66.40;98589.91;2004615;28;2731504;-72
2024/03/27 00:14:25;;;;;;;;;4.33;4.33;;;;;9.90;66.32;98603.03;2035487;28;2754454;-72
2024/03/27 00:15:38;;;;;;;;;5.00;5.00;;;;;9.89;66.16;98604.00;2011748;28;2746141;-72
2024/03/27 00:16:51;;;;;;;;;4.00;4.00;;;;;9.88;66.20;98604.94;2020601;28;2738242;-72
2024/03/27 00:18:04;;;;;;;;;4.50;4.50;;;;;9.88;66.29;98606.69;2018984;28;2744090;-72
2024/03/27 00:19:17;;;;;;;;;4.83;4.33;;;;;9.88;66.48;98601.47;2019796;28;2750281;-72
2024/03/27 00:20:30;;;;;;;;;4.83;4.50;;;;;9.86;66.49;98598.94;2019197;28;2752418;-72
2024/03/27 00:21:44;;;;;;;;;3.00;3.00;;;;;9.86;66.56;98587.59;2019560;28;2749247;-73
2024/03/27 00:22:57;;;;;;;;;6.00;5.83;;;;;9.85;66.29;98592.00;2042669;28;2752349;-72
2024/03/27 00:24:10;;;;;;;;;6.33;5.00;;;;;9.84;66.32;98579.84;2008693;28;2752366;-72
2024/03/27 00:25:23;;;;;;;;;4.50;4.17;;;;;9.86;66.69;98579.72;2028437;28;2743030;-72
2024/03/27 00:26:38;;;;;;;;;5.00;5.00;;;;;9.84;66.79;98568.50;2020378;28;2749220;-72
2024/03/27 00:27:51;;;;;;;;;3.83;3.83;;;;;9.83;66.45;98577.31;2020602;28;2750329;-72
2024/03/27 00:29:01;;;;;;;;;6.00;4.00;;;;;9.84;66.40;98579.84;2017709;28;2749284;-72
2024/03/27 00:30:12;;;;;;;;;5.33;5.00;;;;;9.83;66.24;98572.06;2042608;28;2747204;-72
2024/03/27 00:31:24;;;;;;;;;4.67;4.00;;;;;9.83;66.58;98583.38;1995813;28;2749262;-72
2024/03/27 00:32:37;;;;;;;;;3.83;3.83;;;;;9.79;66.30;98584.53;2044477;28;2750273;-72
2024/03/27 00:33:50;;;;;;;;;4.17;4.17;;;;;9.82;66.51;98597.47;2011735;28;2750284;-72
2024/03/27 00:35:04;;;;;;;;;5.00;5.00;;;;;9.78;66.98;98580.22;2012327;28;2748709;-72
2024/03/27 00:36:17;;;;;;;;;4.83;4.50;;;;;9.79;66.75;98590.63;2044490;28;2744396;-72
2024/03/27 00:37:30;;;;;;;;;5.83;5.67;;;;;9.82;66.81;98594.00;2019556;28;2746109;-72
2024/03/27 00:38:44;;;;;;;;;6.67;4.83;;;;;9.83;66.72;98593.88;2019868;28;2739900;-72
2024/03/27 00:39:57;;;;;;;;;7.50;5.00;;;;;9.84;66.79;98594.72;2044098;28;2750262;-72
2024/03/27 00:41:11;;;;;;;;;3.00;3.00;;;;;9.82;66.80;98591.38;2021006;28;2746094;-72
2024/03/27 00:42:24;;;;;;;;;5.83;5.17;;;;;9.83;67.09;98591.25;2044082;28;2745073;-71
2024/03/27 00:43:37;;;;;;;;;5.00;4.00;;;;;9.84;66.88;98592.97;2020124;28;2748185;-72
2024/03/27 00:44:50;;;;;;;;;6.67;5.67;;;;;9.88;66.75;98586.56;2019973;28;2744026;-72
2024/03/27 00:46:05;;;;;;;;;6.50;5.17;;;;;9.86;66.77;98582.34;2019977;28;2749770;-72
2024/03/27 00:47:15;;;;;;;;;9.67;6.00;;;;;9.89;67.09;98583.00;2018202;28;2762764;-72
2024/03/27 00:48:26;;;;;;;;;7.67;5.00;;;;;9.90;66.76;98582.06;2036644;28;2746091;-72
2024/03/27 00:49:39;;;;;;;;;4.17;4.17;;;;;9.91;66.78;98582.91;2035868;28;2748189;-72
2024/03/27 00:50:53;;;;;;;;;7.00;5.00;;;;;9.91;66.85;98588.16;2019582;28;2744018;-72
2024/03/27 00:52:06;;;;;;;;;5.33;4.83;;;;;9.92;66.71;98589.00;2019850;28;2739876;-72
2024/03/27 00:53:19;;;;;;;;;6.33;4.83;;;;;9.93;66.72;98594.13;2008716;28;2744019;-72
2024/03/27 00:54:34;;;;;;;;;6.17;4.00;;;;;9.93;66.97;98593.28;2011509;28;2752401;-72
2024/03/27 00:55:56;;;;;;;;;5.00;5.00;;;;;9.95;66.79;98588.81;2018515;28;2749274;-72
2024/03/27 00:57:09;;;;;;;;;3.17;3.00;;;;;9.95;67.36;98591.44;2020112;28;2749215;-72
2024/03/27 00:58:23;;;;;;;;;5.67;5.33;;;;;9.94;66.83;98584.47;2042632;28;2745080;-72
2024/03/27 00:59:36;;;;;;;;;5.67;5.67;;;;;9.96;66.87;98588.69;2043803;28;2754447;-72
2024/03/27 01:00:49;;;;;;;;;5.00;4.50;;;;;9.98;66.96;98588.59;2020022;28;2744020;-72
2024/03/27 01:02:03;;;;;;;;;7.67;5.50;;;;;9.99;66.79;98590.28;2020388;28;2749215;-72
2024/03/27 01:03:16;;;;;;;;;4.50;4.50;;;;;10.01;66.96;98594.47;2019149;28;2754487;-72
2024/03/27 01:04:30;;;;;;;;;5.33;4.33;;;;;10.04;67.00;98589.97;2019471;28;2754431;-72
2024/03/27 01:05:41;;;;;;;;;6.00;5.67;;;;;10.04;66.74;98584.72;1994066;28;3470402;-72
2024/03/27 01:06:51;;;;;;;;;4.00;4.00;;;;;10.06;66.71;98588.94;2016355;28;2754447;-72
2024/03/27 01:08:02;;;;;;;;;6.00;4.67;;;;;10.05;67.06;98584.59;2043093;28;2745459;-72
2024/03/27 01:09:13;;;;;;;;;7.33;5.00;;;;;10.08;66.55;98596.69;2017771;28;2749247;-72
2024/03/27 01:10:25;;;;;;;;;6.50;4.25;;;;;10.05;66.62;98584.59;2042625;28;2752368;-72
2024/03/27 01:11:38;;;;;;;;;6.50;6.50;;;;;10.05;66.88;98592.47;2043982;28;2733595;-72
2024/03/27 01:12:51;;;;;;;;;8.50;6.83;;;;;10.10;66.86;98592.22;2020944;28;2733603;-72
2024/03/27 01:14:04;;;;;;;;;6.00;6.00;;;;;10.11;66.69;98597.34;2042279;28;2750284;-72
2024/03/27 01:15:18;;;;;;;;;5.67;5.67;;;;;10.11;66.67;98588.63;2020246;28;2750705;-72
2024/03/27 01:16:32;;;;;;;;;5.33;5.33;;;;;10.12;66.67;98593.75;2044842;28;2746094;-72
2024/03/27 01:17:46;;;;;;;;;6.50;5.83;;;;;10.12;67.11;98583.25;2022137;28;2743085;-72
2024/03/27 01:18:59;;;;;;;;;5.67;5.67;;;;;10.16;66.44;98588.31;2044732;28;2745049;-72
2024/03/27 01:20:12;;;;;;;;;5.50;5.17;;;;;10.15;66.84;98584.84;2021160;28;2745077;-72
2024/03/27 01:21:25;;;;;;;;;7.17;6.67;;;;;10.16;66.86;98589.16;2014840;28;2750289;-72
2024/03/27 01:22:39;;;;;;;;;4.00;4.00;;;;;10.13;66.91;98587.59;2023060;28;2739865;-72
2024/03/27 01:23:52;;;;;;;;;5.83;5.83;;;;;10.17;66.77;98595.25;2021192;28;2746086;-72
2024/03/27 01:25:05;;;;;;;;;6.00;6.00;;;;;10.16;66.93;98599.66;2011912;28;2744047;-72
2024/03/27 01:26:19;;;;;;;;;5.83;5.17;;;;;10.20;66.97;98610.78;2037932;28;2746088;-72
2024/03/27 01:27:32;;;;;;;;;6.17;4.83;;;;;10.21;66.94;98612.50;2036145;28;2747149;-72
2024/03/27 01:28:45;;;;;;;;;5.67;5.17;;;;;10.19;66.92;98609.97;2014570;28;2750289;-72
2024/03/27 01:29:58;;;;;;;;;5.50;5.50;;;;;10.21;66.90;98610.72;2021576;28;2745064;-72
2024/03/27 01:31:12;;;;;;;;;7.33;5.67;;;;;10.21;66.77;98609.88;2020326;28;2752343;-72
2024/03/27 01:32:25;;;;;;;;;2.00;2.00;;;;;10.20;66.90;98606.38;2021634;28;2740930;-72
2024/03/27 01:33:38;;;;;;;;;5.33;5.33;;;;;10.22;66.68;98598.44;2021807;28;2744043;-72
2024/03/27 01:34:51;;;;;;;;;6.00;4.83;;;;;10.23;66.75;98602.72;2020498;28;2736717;-72
2024/03/27 01:36:02;;;;;;;;;5.67;5.67;;;;;10.22;66.90;98608.94;1988702;28;2752493;-72
2024/03/27 01:37:13;;;;;;;;;7.75;7.00;;;;;10.23;67.35;98608.81;2044432;28;2730487;-72
2024/03/27 01:38:27;;;;;;;;;6.83;6.00;;;;;10.22;66.39;98598.44;2043629;28;2748190;-72
2024/03/27 01:39:40;;;;;;;;;5.33;4.50;;;;;10.22;66.80;98596.63;2020944;28;2748189;-72
2024/03/27 01:40:53;;;;;;;;;7.17;7.17;;;;;10.23;66.79;98595.69;2044959;28;2731512;-72
2024/03/27 01:42:06;;;;;;;;;6.33;5.50;;;;;10.23;67.02;98600.09;2035639;28;2746614;-72
2024/03/27 01:43:19;;;;;;;;;6.67;5.17;;;;;10.24;66.91;98602.66;2013255;28;2749211;-72
2024/03/27 01:44:32;;;;;;;;;6.00;6.00;;;;;10.24;66.97;98607.03;2020913;28;2750257;-72
2024/03/27 01:45:46;;;;;;;;;7.17;7.17;;;;;10.28;66.69;98613.75;2020810;28;2737773;-72
2024/03/27 01:46:59;;;;;;;;;6.50;6.50;;;;;10.25;66.88;98606.09;2044558;28;2750273;-72
2024/03/27 01:48:12;;;;;;;;;8.50;7.50;;;;;10.26;66.61;98607.78;2039358;28;2729441;-71
2024/03/27 01:49:25;;;;;;;;;7.00;7.00;;;;;10.27;66.59;98598.13;2036704;28;2736736;-72
2024/03/27 01:50:36;;;;;;;;;5.00;5.00;;;;;10.27;66.50;98600.75;2011141;28;2754474;-72
2024/03/27 01:51:50;;;;;;;;;6.00;6.00;;;;;10.29;66.85;98604.09;2043902;28;2748178;-72
2024/03/27 01:53:03;;;;;;;;;8.67;7.83;;;;;10.28;66.97;98605.03;2036096;28;2737765;-72
2024/03/27 01:54:18;;;;;;;;;9.50;7.83;;;;;10.29;66.92;98612.84;2018511;28;2736752;-71
2024/03/27 01:55:31;;;;;;;;;6.50;6.50;;;;;10.28;66.67;98608.50;2020852;28;2743001;-72
2024/03/27 01:56:45;;;;;;;;;9.17;7.00;;;;;10.29;67.18;98604.97;2021232;28;2749219;-72
2024/03/27 01:57:58;;;;;;;;;8.50;8.17;;;;;10.28;66.82;98599.78;2044225;28;2733615;-71
2024/03/27 01:59:12;;;;;;;;;9.33;8.50;;;;;10.31;66.72;98603.06;2044655;28;2746118;-71
2024/03/27 02:00:25;;;;;;;;;7.50;7.50;;;;;10.29;66.76;98601.47;2021557;28;2733606;-72
2024/03/27 02:01:36;;;;;;;;;9.67;7.67;;;;;10.31;66.77;98595.19;2017063;28;3462737;-72
2024/03/27 02:02:47;;;;;;;;;11.00;7.67;;;;;10.31;66.67;98586.47;2033634;28;2762834;-72
2024/03/27 02:04:01;;;;;;;;;9.17;7.83;;;;;10.29;66.83;98586.59;2042832;28;2741951;-72
2024/03/27 02:05:15;;;;;;;;;9.50;7.00;;;;;10.34;66.82;98594.16;2014718;28;2741944;-72
2024/03/27 02:06:28;;;;;;;;;8.17;7.00;;;;;10.32;66.95;98583.72;2021990;28;2735721;-72
2024/03/27 02:07:44;;;;;;;;;9.83;7.83;;;;;10.32;66.79;98578.47;2035760;28;2749222;-72
2024/03/27 02:08:57;;;;;;;;;7.33;7.33;;;;;10.33;66.93;98576.69;2014673;28;2739937;-72
2024/03/27 02:10:08;;;;;;;;;7.67;7.67;;;;;10.35;66.85;98585.31;2018996;28;2728394;-72
2024/03/27 02:11:19;;;;;;;;;9.00;9.00;;;;;10.34;66.58;98576.63;2020189;28;3459628;-72
2024/03/27 02:12:30;;;;;;;;;10.00;8.00;;;;;10.35;66.75;98573.03;2014450;28;2759068;-72
2024/03/27 02:13:42;;;;;;;;;8.00;8.00;;;;;10.33;66.90;98569.66;2038511;28;2733599;-72
2024/03/27 02:14:52;;;;;;;;;12.33;9.33;;;;;10.34;66.80;98566.09;1990522;28;3484014;-72
2024/03/27 02:16:03;;;;;;;;;8.67;7.00;;;;;10.35;66.93;98562.53;2033196;28;2752367;-72
2024/03/27 02:17:14;;;;;;;;;9.00;9.00;;;;;10.38;66.77;98571.97;2032591;28;1848222;-72
2024/03/27 02:18:25;;;;;;;;;6.00;6.00;;;;;10.36;67.00;98568.63;2014763;28;2745081;-71
2024/03/27 02:19:35;;;;;;;;;10.00;8.00;;;;;10.38;66.74;98555.38;1988592;28;2761858;-72
2024/03/27 02:20:46;;;;;;;;;10.67;9.67;;;;;10.37;66.83;98553.72;2034562;28;3496076;-72
2024/03/27 02:21:57;;;;;;;;;10.33;8.00;;;;;10.38;66.78;98550.13;2044065;28;2750755;-71
2024/03/27 02:23:15;;;;;;;;;7.00;7.00;;;;;10.39;66.82;98538.69;1997062;28;2740898;-72
2024/03/27 02:24:44;;;;;;;;;9.67;8.33;;;;;10.39;66.70;98543.94;2041558;28;2745121;-71
2024/03/27 02:26:17;;;;;;;;;9.33;6.67;;;;;10.42;66.67;98554.25;1989035;28;2731558;-72
2024/03/27 02:27:31;;;;;;;;;7.50;7.50;;;;;10.40;66.79;98548.22;2045258;28;2726793;-72
2024/03/27 02:28:44;;;;;;;;;8.17;7.50;;;;;10.41;66.42;98547.31;2046048;28;2733604;-72
2024/03/27 02:29:57;;;;;;;;;7.33;7.33;;;;;10.43;66.64;98542.78;2020712;28;2731591;-72
2024/03/27 02:31:08;;;;;;;;;6.67;6.67;;;;;10.43;66.81;98537.53;2018315;28;2749227;-72
2024/03/27 02:32:19;;;;;;;;;4.33;4.33;;;;;10.42;66.71;98538.50;2043520;28;2748224;-72
2024/03/27 02:33:29;;;;;;;;;9.67;8.33;;;;;10.40;66.85;98529.84;1993570;28;3470040;-72
2024/03/27 02:34:40;;;;;;;;;8.00;8.00;;;;;10.43;66.84;98527.03;2044294;28;2735675;-72
2024/03/27 02:35:54;;;;;;;;;8.83;7.00;;;;;10.42;66.45;98530.59;2018390;28;2735687;-72
2024/03/27 02:37:04;;;;;;;;;10.00;9.00;;;;;10.41;66.77;98535.00;2010231;28;2762881;-72
2024/03/27 02:38:15;;;;;;;;;6.00;6.00;;;;;10.41;66.70;98532.38;2035592;28;2728422;-72
2024/03/27 02:39:26;;;;;;;;;7.33;7.33;;;;;10.43;66.89;98540.16;2042986;28;2732574;-72
2024/03/27 02:40:39;;;;;;;;;8.00;6.33;;;;;10.43;66.64;98542.78;2021134;28;2742965;-72
2024/03/27 02:41:53;;;;;;;;;8.17;8.17;;;;;10.42;66.61;98535.88;2043215;28;2733615;-72
2024/03/27 02:43:06;;;;;;;;;7.67;7.67;;;;;10.46;66.73;98550.47;2019352;28;2738862;-72
2024/03/27 02:44:17;;;;;;;;;9.67;8.00;;;;;10.44;66.80;98541.84;2017246;28;3461702;-72
2024/03/27 02:45:28;;;;;;;;;8.00;6.67;;;;;10.44;66.89;98547.94;2018536;28;2742034;-72
2024/03/27 02:46:39;;;;;;;;;9.00;7.00;;;;;10.44;66.83;98545.31;2033884;28;2740914;-71
2024/03/27 02:47:50;;;;;;;;;7.67;7.00;;;;;10.47;66.42;98549.50;2044206;28;2733602;-72
2024/03/27 02:49:00;;;;;;;;;7.00;7.00;;;;;10.46;66.76;98551.31;1995955;28;2737757;-72
2024/03/27 02:50:11;;;;;;;;;9.67;9.00;;;;;10.46;66.47;98542.59;2035785;28;2761800;-72
2024/03/27 02:51:22;;;;;;;;;10.67;8.67;;;;;10.46;66.79;98546.06;2027902;28;3476306;-72
2024/03/27 02:52:33;;;;;;;;;11.00;8.00;;;;;10.47;66.50;98554.75;2029290;28;2766983;-72
2024/03/27 02:53:44;;;;;;;;;7.00;6.00;;;;;10.44;66.41;98550.56;2042435;28;2746117;-72
2024/03/27 02:54:54;;;;;;;;;10.67;8.00;;;;;10.44;66.79;98552.34;1994936;28;3479453;-72
2024/03/27 02:56:05;;;;;;;;;9.33;7.33;;;;;10.45;66.64;98551.38;2043436;28;2747706;-72
2024/03/27 02:57:18;;;;;;;;;11.83;8.33;;;;;10.46;66.67;98550.47;2021268;28;2757585;-72
2024/03/27 02:58:32;;;;;;;;;8.83;8.00;;;;;10.47;66.40;98544.25;2019679;28;2742992;-72
2024/03/27 02:59:45;;;;;;;;;8.00;7.00;;;;;10.46;66.95;98542.59;2020921;28;2729440;-72
2024/03/27 03:00:55;;;;;;;;;10.33;7.00;;;;;10.49;66.58;98545.00;2015883;28;3476805;-72
2024/03/27 03:02:06;;;;;;;;;12.33;8.00;;;;;10.50;66.65;98551.06;2034573;28;2758706;-72
2024/03/27 03:03:17;;;;;;;;;10.33;8.67;;;;;10.50;66.54;98549.28;2031965;28;3485641;-72
2024/03/27 03:04:28;;;;;;;;;9.00;8.33;;;;;10.51;66.91;98551.03;2042815;28;2731622;-72
2024/03/27 03:05:42;;;;;;;;;9.17;7.50;;;;;10.52;66.54;98551.88;2021233;28;2748189;-72
2024/03/27 03:06:55;;;;;;;;;8.00;7.50;;;;;10.50;66.41;98546.66;2043800;28;2737771;-72
2024/03/27 03:08:06;;;;;;;;;12.33;9.33;;;;;10.51;66.51;98551.03;2012402;28;2766419;-72
2024/03/27 03:09:18;;;;;;;;;9.33;9.00;;;;;10.50;66.84;98544.03;2022356;28;2752414;-72
2024/03/27 03:10:32;;;;;;;;;8.83;6.83;;;;;10.52;66.69;98547.44;2035199;28;2749224;-72
2024/03/27 03:11:45;;;;;;;;;9.00;8.00;;;;;10.50;66.86;98540.56;2019772;28;2731527;-72
2024/03/27 03:12:55;;;;;;;;;6.67;6.00;;;;;10.53;66.44;98537.78;2017929;28;2745062;-72
2024/03/27 03:14:06;;;;;;;;;11.33;8.33;;;;;10.53;66.68;98532.53;2033484;28;3473200;-72
2024/03/27 03:15:17;;;;;;;;;7.00;5.00;;;;;10.50;66.48;98532.69;2043462;28;2739876;-72
2024/03/27 03:16:31;;;;;;;;;8.50;8.17;;;;;10.50;66.68;98533.53;2022442;28;2738108;-72
2024/03/27 03:17:45;;;;;;;;;9.00;9.00;;;;;10.49;66.95;98523.16;2043991;28;2730481;-72
2024/03/27 03:18:58;;;;;;;;;11.17;7.67;;;;;10.50;66.93;98525.66;2044006;28;2757582;-72
2024/03/27 03:20:09;;;;;;;;;7.67;6.00;;;;;10.50;66.69;98525.66;1993441;28;3466922;-72
2024/03/27 03:21:19;;;;;;;;;12.67;8.00;;;;;10.49;66.84;98525.78;2006639;28;3477339;-72
2024/03/27 03:22:30;;;;;;;;;8.00;7.00;;;;;10.52;67.01;98525.59;2023508;28;2739849;-72
2024/03/27 03:23:41;;;;;;;;;5.33;5.33;;;;;10.52;66.38;98517.72;1987878;28;2745083;-72
2024/03/27 03:24:52;;;;;;;;;7.33;7.33;;;;;10.51;66.31;98522.13;2044083;28;2732581;-72
2024/03/27 03:26:05;;;;;;;;;8.17;7.00;;;;;10.50;66.74;98523.03;2043892;28;2731519;-72
2024/03/27 03:27:16;;;;;;;;;9.67;9.67;;;;;10.49;66.70;98518.75;2017511;28;2761743;-72
2024/03/27 03:28:29;;;;;;;;;6.67;6.17;;;;;10.52;66.42;98521.16;2044434;28;2743021;-72
2024/03/27 03:29:42;;;;;;;;;8.83;7.83;;;;;10.52;66.71;98518.53;2019735;28;2744016;-72
2024/03/27 03:31:05;;;;;;;;;8.00;6.00;;;;;10.50;66.66;98516.94;2043203;28;2750760;-72
2024/03/27 03:32:18;;;;;;;;;8.00;7.33;;;;;10.50;66.52;98509.06;2020717;28;2730488;-72
2024/03/27 03:33:31;;;;;;;;;9.33;8.17;;;;;10.51;66.79;98508.16;2042229;28;2753397;-72
2024/03/27 03:34:45;;;;;;;;;6.83;6.67;;;;;10.51;66.62;98510.78;2020593;28;2740886;-72
2024/03/27 03:35:58;;;;;;;;;7.33;7.17;;;;;10.48;66.64;98498.66;2021340;28;2735122;-72
2024/03/27 03:37:08;;;;;;;;;11.00;8.33;;;;;10.50;66.80;98503.78;2009677;28;3477318;-72
2024/03/27 03:38:20;;;;;;;;;9.00;6.00;;;;;10.51;66.64;98508.16;2039853;28;2757565;-72
2024/03/27 03:39:33;;;;;;;;;7.33;5.33;;;;;10.51;66.42;98502.91;2020606;28;2740894;-72
2024/03/27 03:41:00;;;;;;;;;7.67;6.50;;;;;10.50;66.49;98502.03;2043255;28;2748213;-72
2024/03/27 03:42:13;;;;;;;;;7.50;7.50;;;;;10.52;66.54;98505.41;2012937;28;2735675;-72
2024/03/27 03:43:26;;;;;;;;;5.67;5.67;;;;;10.53;66.72;98503.63;2019658;28;2747148;-72
2024/03/27 03:44:39;;;;;;;;;7.00;6.33;;;;;10.53;66.56;98501.00;2020462;28;2737801;-72
2024/03/27 03:45:53;;;;;;;;;6.00;5.50;;;;;10.53;66.63;98499.22;2020368;28;2746103;-72
2024/03/27 03:47:06;;;;;;;;;7.50;6.17;;;;;10.53;66.62;98493.97;2035590;28;2750269;-72
2024/03/27 03:48:21;;;;;;;;;8.50;7.67;;;;;10.54;66.57;98503.50;2042224;28;2740929;-72
2024/03/27 03:49:34;;;;;;;;;7.00;6.50;;;;;10.54;66.70;98505.31;2020567;28;2745057;-72
2024/03/27 03:50:45;;;;;;;;;9.67;8.33;;;;;10.50;66.60;98486.25;1993840;28;3453234;-72
2024/03/27 03:51:56;;;;;;;;;6.33;6.33;;;;;10.55;66.87;98496.47;2026377;28;2746114;-72
2024/03/27 03:53:09;;;;;;;;;6.83;6.83;;;;;10.54;66.65;98485.13;2003276;28;2748235;-72
2024/03/27 03:54:23;;;;;;;;;7.50;7.17;;;;;10.56;66.71;98479.78;2012545;28;2746106;-72
2024/03/27 03:55:36;;;;;;;;;9.33;7.50;;;;;10.54;66.62;98472.00;2044581;28;2745081;-72
2024/03/27 03:56:53;;;;;;;;;8.17;7.00;;;;;10.57;66.47;98473.56;2011793;28;2727373;-72
2024/03/27 03:58:06;;;;;;;;;8.50;7.00;;;;;10.56;66.53;98470.13;2006506;28;2740914;-72
2024/03/27 03:59:16;;;;;;;;;6.33;5.33;;;;;10.56;66.66;98470.13;1986253;28;2747160;-72
2024/03/27 04:00:27;;;;;;;;;6.33;6.00;;;;;10.56;66.66;98470.13;2035533;28;2749228;-72
2024/03/27 04:01:40;;;;;;;;;6.33;5.33;;;;;10.57;66.72;98473.56;2017423;28;2747156;-72
2024/03/27 04:02:54;;;;;;;;;5.67;5.33;;;;;10.55;66.64;98472.84;2019451;28;2746133;-72
2024/03/27 04:04:07;;;;;;;;;5.33;5.33;;;;;10.55;66.69;98481.56;2018184;28;2754455;-72
2024/03/27 04:05:20;;;;;;;;;4.33;4.00;;;;;10.56;66.68;98485.03;2021580;28;2741967;-72
2024/03/27 04:06:34;;;;;;;;;6.33;6.17;;;;;10.54;66.83;98493.00;2019773;28;2748204;-72
2024/03/27 04:07:47;;;;;;;;;8.17;6.00;;;;;10.58;66.49;98496.28;2020957;28;2748210;-72
2024/03/27 04:09:01;;;;;;;;;7.50;6.50;;;;;10.55;66.74;98496.47;2018984;28;2748177;-72
2024/03/27 04:10:15;;;;;;;;;6.17;4.83;;;;;10.57;66.28;98503.31;2044506;28;2740906;-72
2024/03/27 04:11:28;;;;;;;;;6.67;5.50;;;;;10.55;66.54;98497.31;2019166;28;2750284;-72
2024/03/27 04:12:41;;;;;;;;;7.33;5.67;;;;;10.54;66.45;98506.13;2020102;28;2742985;-72
2024/03/27 04:13:54;;;;;;;;;7.33;6.17;;;;;10.54;66.56;98508.75;2010790;28;2748183;-72
2024/03/27 04:15:09;;;;;;;;;5.33;5.17;;;;;10.57;66.49;98505.09;2012374;28;2748207;-72
2024/03/27 04:16:22;;;;;;;;;4.00;4.00;;;;;10.56;66.56;98512.16;2011981;28;2744075;-72
2024/03/27 04:17:32;;;;;;;;;8.00;5.67;;;;;10.57;66.58;98512.97;2012767;28;2752362;-72
2024/03/27 04:18:43;;;;;;;;;7.00;5.00;;;;;10.54;66.69;98500.06;2043152;28;2748185;-72
2024/03/27 04:20:01;;;;;;;;;5.00;5.00;;;;;10.56;66.83;98500.78;2044091;28;2743010;-72
2024/03/27 04:21:14;;;;;;;;;5.17;4.83;;;;;10.55;66.43;98499.94;2010950;28;2741963;-72
2024/03/27 04:22:31;;;;;;;;;6.33;5.00;;;;;10.55;66.37;98491.22;2018480;28;2744032;-72
2024/03/27 04:23:45;;;;;;;;;7.67;6.50;;;;;10.58;66.65;98491.88;2020923;28;2745060;-72
2024/03/27 04:24:58;;;;;;;;;5.33;5.00;;;;;10.56;66.37;98496.38;2020706;28;2749240;-72
2024/03/27 04:26:11;;;;;;;;;6.67;5.33;;;;;10.57;66.81;98503.31;2018800;28;2750261;-72
2024/03/27 04:27:22;;;;;;;;;5.33;4.67;;;;;10.60;66.67;98498.78;1994203;28;2752377;-72
2024/03/27 04:28:33;;;;;;;;;6.00;4.00;;;;;10.57;65.98;98492.78;2040780;28;2733599;-72
2024/03/27 04:29:46;;;;;;;;;4.67;4.00;;;;;10.58;66.19;98493.66;2013553;28;2744028;-72
2024/03/27 04:31:03;;;;;;;;;5.33;5.00;;;;;10.60;66.10;98490.91;2011204;28;2744114;-72
2024/03/27 04:32:17;;;;;;;;;7.83;5.17;;;;;10.58;66.40;98491.88;2013339;28;2748194;-72
2024/03/27 04:33:30;;;;;;;;;7.33;7.33;;;;;10.58;66.37;98494.50;2042119;28;2750307;-72
2024/03/27 04:34:43;;;;;;;;;6.83;5.50;;;;;10.60;66.20;98493.53;2020545;28;2741944;-72
2024/03/27 04:35:56;;;;;;;;;5.00;5.00;;;;;10.61;66.47;98492.59;2043209;28;2744051;-72
2024/03/27 04:37:09;;;;;;;;;6.67;5.50;;;;;10.58;66.58;98491.03;2011271;28;2746662;-72
2024/03/27 04:38:23;;;;;;;;;4.67;4.67;;;;;10.60;66.54;98490.91;2035014;28;2750265;-72
2024/03/27 04:39:33;;;;;;;;;5.33;5.33;;;;;10.59;66.36;98484.84;1986425;28;2750276;-72
2024/03/27 04:40:44;;;;;;;;;4.67;4.67;;;;;10.61;66.35;98487.34;2012524;28;2750379;-72
2024/03/27 04:41:55;;;;;;;;;6.00;5.00;;;;;10.61;66.56;98487.34;2031618;28;2747170;-72
2024/03/27 04:43:06;;;;;;;;;9.67;6.67;;;;;10.59;66.55;98484.84;2032221;28;2762867;-72
2024/03/27 04:44:18;;;;;;;;;2.25;2.00;;;;;10.58;66.23;98483.13;2043935;28;2737800;-72
2024/03/27 04:45:31;;;;;;;;;4.00;4.00;;;;;10.63;66.26;98490.69;2044032;28;2742977;-72
2024/03/27 04:46:45;;;;;;;;;5.83;5.00;;;;;10.61;66.20;98482.09;2021048;28;2752360;-72
2024/03/27 04:47:58;;;;;;;;;6.83;4.00;;;;;10.61;66.38;98484.72;2020255;28;2744043;-72
2024/03/27 04:49:11;;;;;;;;;6.83;5.83;;;;;10.60;66.40;98480.41;2043830;28;2740901;-72
2024/03/27 04:50:24;;;;;;;;;7.00;6.00;;;;;10.61;66.14;98488.19;2045652;28;2750265;-72
2024/03/27 04:51:38;;;;;;;;;6.33;6.33;;;;;10.62;66.35;98491.66;2021681;28;2743005;-72
2024/03/27 04:52:51;;;;;;;;;5.00;5.00;;;;;10.61;66.09;98501.31;2019543;28;2748188;-72
2024/03/27 04:54:04;;;;;;;;;6.17;6.17;;;;;10.61;66.09;98506.56;2022345;28;2743359;-72
2024/03/27 04:55:18;;;;;;;;;9.67;6.50;;;;;10.59;66.35;98495.34;2021929;28;2746201;-72
2024/03/27 04:56:28;;;;;;;;;5.00;5.00;;;;;10.61;66.18;98500.47;1994701;28;2752377;-72
2024/03/27 04:57:40;;;;;;;;;5.00;5.00;;;;;10.60;66.30;98493.53;2043396;28;2741937;-72
2024/03/27 04:58:53;;;;;;;;;8.00;6.00;;;;;10.62;66.36;98496.91;2022386;28;2744044;-72
2024/03/27 05:00:07;;;;;;;;;7.17;6.17;;;;;10.62;66.17;98497.72;2021844;28;2750276;-72
2024/03/27 05:01:21;;;;;;;;;5.83;5.00;;;;;10.63;66.35;98495.94;2021816;28;2746141;-72
2024/03/27 05:02:34;;;;;;;;;4.00;4.00;;;;;10.61;66.23;98496.06;2022053;28;2754439;-72
2024/03/27 05:03:44;;;;;;;;;5.33;5.00;;;;;10.63;66.07;98490.69;1995149;28;2752436;-72
2024/03/27 05:04:55;;;;;;;;;3.67;3.67;;;;;10.61;66.13;98482.09;2044838;28;2746121;-72
2024/03/27 05:06:09;;;;;;;;;7.33;5.50;;;;;10.61;66.49;98487.34;2043709;28;2748272;-73
2024/03/27 05:07:22;;;;;;;;;9.83;5.00;;;;;10.58;66.45;98486.63;2017100;28;2756509;-72
2024/03/27 05:08:32;;;;;;;;;4.67;4.67;;;;;10.61;66.44;98489.97;1995608;28;2748241;-72
2024/03/27 05:09:43;;;;;;;;;5.67;4.67;;;;;10.60;66.14;98490.91;2035031;28;2754465;-72
2024/03/27 05:10:57;;;;;;;;;7.00;5.67;;;;;10.60;66.31;98483.03;2037926;28;2743511;-72
2024/03/27 05:12:15;;;;;;;;;5.00;5.00;;;;;10.61;66.21;98490.81;2021271;28;2740909;-72
2024/03/27 05:13:28;;;;;;;;;7.33;5.33;;;;;10.63;66.19;98501.19;2021835;28;2747157;-72
2024/03/27 05:14:41;;;;;;;;;4.83;4.50;;;;;10.63;66.08;98494.16;2021996;28;2748216;-72
2024/03/27 05:15:54;;;;;;;;;6.00;6.00;;;;;10.62;66.37;98496.91;2020924;28;2750280;-72
2024/03/27 05:17:08;;;;;;;;;9.67;6.67;;;;;10.61;66.09;98497.84;2020687;28;2760700;-72
2024/03/27 05:18:21;;;;;;;;;4.83;4.83;;;;;10.60;66.04;98496.16;2022019;28;2735682;-72
2024/03/27 05:19:35;;;;;;;;;7.67;6.83;;;;;10.60;66.18;98496.16;2020939;28;2750258;-72
2024/03/27 05:20:48;;;;;;;;;5.83;5.83;;;;;10.60;66.47;98502.25;2037274;28;2744016;-72
2024/03/27 05:22:03;;;;;;;;;6.67;6.00;;;;;10.61;66.29;98506.56;2021918;28;2748186;-72
2024/03/27 05:23:17;;;;;;;;;6.17;5.00;;;;;10.60;66.01;98511.91;2022125;28;2749215;-72
2024/03/27 05:24:31;;;;;;;;;4.67;4.50;;;;;10.61;66.13;98509.19;2021725;28;2741951;-72
2024/03/27 05:25:44;;;;;;;;;4.83;4.83;;;;;10.58;66.11;98498.91;2021061;28;2738878;-72
2024/03/27 05:26:57;;;;;;;;;5.00;5.00;;;;;10.60;65.98;98501.41;2044282;28;2748166;-72
2024/03/27 05:28:10;;;;;;;;;6.17;5.50;;;;;10.58;66.02;98499.75;2021695;28;2750297;-72
2024/03/27 05:29:24;;;;;;;;;4.83;3.67;;;;;10.58;66.02;98498.91;2020575;28;2733613;-72
2024/03/27 05:30:37;;;;;;;;;4.50;4.50;;;;;10.60;66.30;98506.66;2036375;28;2746078;-72
2024/03/27 05:31:58;;;;;;;;;4.50;4.50;;;;;10.58;66.32;98501.53;2005242;28;2754500;-72
2024/03/27 05:33:11;;;;;;;;;5.17;4.00;;;;;10.60;66.11;98506.66;2014913;28;2739884;-72
2024/03/27 05:34:22;;;;;;;;;4.33;3.67;;;;;10.58;65.87;98507.63;1993910;28;2737872;-72
2024/03/27 05:35:36;;;;;;;;;5.33;5.00;;;;;10.58;66.13;98504.16;2045381;28;2752333;-72